sensor_id;sensor_type;location;lat;lon;timestamp;P1;durP1;ratioP1;P2;durP2;ratioP2
29776;SDS011;16677;52.224;7.484;2023-09-19T01:30:57;8.27;;;3.30;;
29776;SDS011;16677;52.224;7.484;2023-09-19T01:33:28;9.47;;;3.53;;
29776;SDS011;16677;52.224;7.484;2023-09-19T01:36:00;14.40;;;3.57;;
29776;SDS011;16677;52.224;7.484;2023-09-19T01:38:28;8.63;;;3.07;;
29776;SDS011;16677;52.224;7.484;2023-09-19T01:41:04;9.20;;;3.27;;
29776;SDS011;16677;52.224;7.484;2023-09-19T01:43:41;10.70;;;3.57;;
29776;SDS011;16677;52.224;7.484;2023-09-19T01:46:13;12.23;;;4.17;;
29776;SDS011;16677;52.224;7.484;2023-09-19T01:54:16;11.77;;;3.40;;
29776;SDS011;16677;52.224;7.484;2023-09-19T01:59:54;11.40;;;4.27;;
29776;SDS011;16677;52.224;7.484;2023-09-19T02:02:27;10.97;;;3.40;;
29776;SDS011;16677;52.224;7.484;2023-09-19T02:04:56;9.20;;;3.03;;
29776;SDS011;16677;52.224;7.484;2023-09-19T02:07:23;9.57;;;3.43;;
29776;SDS011;16677;52.224;7.484;2023-09-19T02:09:50;10.67;;;3.37;;
29776;SDS011;16677;52.224;7.484;2023-09-19T02:12:17;6.93;;;2.93;;
29776;SDS011;16677;52.224;7.484;2023-09-19T02:14:45;10.57;;;3.30;;
29776;SDS011;16677;52.224;7.484;2023-09-19T02:17:12;13.00;;;3.20;;
29776;SDS011;16677;52.224;7.484;2023-09-19T02:19:39;10.17;;;3.20;;
29776;SDS011;16677;52.224;7.484;2023-09-19T02:22:07;13.60;;;2.90;;
29776;SDS011;16677;52.224;7.484;2023-09-19T02:24:37;9.43;;;2.60;;
29776;SDS011;16677;52.224;7.484;2023-09-19T02:27:04;7.50;;;3.20;;
29776;SDS011;16677;52.224;7.484;2023-09-19T02:29:34;16.23;;;3.67;;
29776;SDS011;16677;52.224;7.484;2023-09-19T02:32:01;12.03;;;3.47;;
29776;SDS011;16677;52.224;7.484;2023-09-19T02:34:30;10.17;;;3.43;;
29776;SDS011;16677;52.224;7.484;2023-09-19T02:36:57;16.30;;;3.40;;
29776;SDS011;16677;52.224;7.484;2023-09-19T02:39:24;11.07;;;3.07;;
29776;SDS011;16677;52.224;7.484;2023-09-19T02:41:51;14.50;;;4.17;;
29776;SDS011;16677;52.224;7.484;2023-09-19T02:44:19;11.60;;;3.97;;
29776;SDS011;16677;52.224;7.484;2023-09-19T02:46:46;10.07;;;3.23;;
29776;SDS011;16677;52.224;7.484;2023-09-19T02:49:14;14.47;;;3.90;;
29776;SDS011;16677;52.224;7.484;2023-09-19T02:51:41;9.33;;;3.93;;
29776;SDS011;16677;52.224;7.484;2023-09-19T02:54:08;8.20;;;2.83;;
29776;SDS011;16677;52.224;7.484;2023-09-19T02:56:35;11.53;;;3.60;;
29776;SDS011;16677;52.224;7.484;2023-09-19T09:05:10;8.73;;;3.20;;
29776;SDS011;16677;52.224;7.484;2023-09-19T11:00:58;7.90;;;2.70;;
29776;SDS011;16677;52.224;7.484;2023-09-19T11:27:22;6.65;;;2.53;;
29776;SDS011;16677;52.224;7.484;2023-09-19T11:30:04;9.67;;;3.50;;
29776;SDS011;16677;52.224;7.484;2023-09-19T11:33:28;8.63;;;3.17;;
29776;SDS011;16677;52.224;7.484;2023-09-19T11:43:48;7.30;;;2.70;;
29776;SDS011;16677;52.224;7.484;2023-09-19T11:46:23;8.70;;;3.10;;
29776;SDS011;16677;52.224;7.484;2023-09-19T11:48:51;8.57;;;2.97;;
29776;SDS011;16677;52.224;7.484;2023-09-19T11:51:19;8.77;;;3.10;;
29776;SDS011;16677;52.224;7.484;2023-09-19T11:53:55;10.07;;;2.73;;
29776;SDS011;16677;52.224;7.484;2023-09-19T11:56:24;8.63;;;2.70;;
29776;SDS011;16677;52.224;7.484;2023-09-19T11:58:54;6.73;;;2.53;;
29776;SDS011;16677;52.224;7.484;2023-09-19T12:01:29;9.23;;;3.27;;
29776;SDS011;16677;52.224;7.484;2023-09-19T12:04:02;9.10;;;3.10;;
29776;SDS011;16677;52.224;7.484;2023-09-19T12:06:31;9.03;;;2.97;;
29776;SDS011;16677;52.224;7.484;2023-09-19T12:08:59;5.67;;;2.70;;
29776;SDS011;16677;52.224;7.484;2023-09-19T12:11:28;8.57;;;2.60;;
29776;SDS011;16677;52.224;7.484;2023-09-19T12:14:01;10.10;;;2.70;;
29776;SDS011;16677;52.224;7.484;2023-09-19T12:16:28;7.67;;;2.70;;
29776;SDS011;16677;52.224;7.484;2023-09-19T12:19:17;4.80;;;2.80;;
29776;SDS011;16677;52.224;7.484;2023-09-19T12:21:55;7.47;;;2.90;;
29776;SDS011;16677;52.224;7.484;2023-09-19T12:24:35;8.10;;;2.60;;
29776;SDS011;16677;52.224;7.484;2023-09-19T12:27:06;8.17;;;2.43;;
29776;SDS011;16677;52.224;7.484;2023-09-19T12:29:43;7.73;;;2.57;;
29776;SDS011;16677;52.224;7.484;2023-09-19T12:32:36;6.10;;;2.43;;
29776;SDS011;16677;52.224;7.484;2023-09-19T12:35:07;7.13;;;2.43;;
29776;SDS011;16677;52.224;7.484;2023-09-19T12:37:37;6.28;;;2.28;;
29776;SDS011;16677;52.224;7.484;2023-09-19T12:40:14;9.57;;;2.60;;
29776;SDS011;16677;52.224;7.484;2023-09-19T12:42:48;9.53;;;2.93;;
29776;SDS011;16677;52.224;7.484;2023-09-19T12:45:16;6.80;;;2.40;;
29776;SDS011;16677;52.224;7.484;2023-09-19T12:51:06;4.53;;;1.60;;
29776;SDS011;16677;52.224;7.484;2023-09-19T12:53:40;7.23;;;2.50;;
29776;SDS011;16677;52.224;7.484;2023-09-19T12:56:14;6.57;;;1.97;;
29776;SDS011;16677;52.224;7.484;2023-09-19T12:58:48;8.13;;;1.90;;
29776;SDS011;16677;52.224;7.484;2023-09-19T13:01:21;8.57;;;2.53;;
29776;SDS011;16677;52.224;7.484;2023-09-19T13:06:38;7.00;;;2.50;;
29776;SDS011;16677;52.224;7.484;2023-09-19T13:09:10;7.37;;;2.20;;
29776;SDS011;16677;52.224;7.484;2023-09-19T13:11:38;8.03;;;2.77;;
29776;SDS011;16677;52.224;7.484;2023-09-19T13:14:14;7.30;;;2.77;;
29776;SDS011;16677;52.224;7.484;2023-09-19T13:17:03;8.10;;;2.50;;
29776;SDS011;16677;52.224;7.484;2023-09-19T13:19:44;9.50;;;2.30;;
29776;SDS011;16677;52.224;7.484;2023-09-19T13:25:10;7.07;;;2.30;;
29776;SDS011;16677;52.224;7.484;2023-09-19T13:27:42;6.17;;;2.40;;
29776;SDS011;16677;52.224;7.484;2023-09-19T13:30:21;4.10;;;2.10;;
29776;SDS011;16677;52.224;7.484;2023-09-19T13:32:49;9.20;;;2.10;;
29776;SDS011;16677;52.224;7.484;2023-09-19T13:35:17;9.70;;;2.90;;
29776;SDS011;16677;52.224;7.484;2023-09-19T13:37:46;5.93;;;2.47;;
29776;SDS011;16677;52.224;7.484;2023-09-19T13:40:15;6.50;;;2.33;;
29776;SDS011;16677;52.224;7.484;2023-09-19T13:42:43;7.07;;;2.53;;
29776;SDS011;16677;52.224;7.484;2023-09-19T13:45:10;7.80;;;2.70;;
29776;SDS011;16677;52.224;7.484;2023-09-19T13:47:39;6.63;;;2.90;;
29776;SDS011;16677;52.224;7.484;2023-09-19T13:50:07;6.97;;;2.47;;
29776;SDS011;16677;52.224;7.484;2023-09-19T13:52:35;6.47;;;2.80;;
29776;SDS011;16677;52.224;7.484;2023-09-19T13:55:02;11.33;;;2.73;;
29776;SDS011;16677;52.224;7.484;2023-09-19T13:57:30;6.37;;;2.50;;
29776;SDS011;16677;52.224;7.484;2023-09-19T13:59:59;8.20;;;2.90;;
29776;SDS011;16677;52.224;7.484;2023-09-19T14:02:26;5.00;;;2.77;;
29776;SDS011;16677;52.224;7.484;2023-09-19T14:04:54;7.87;;;2.53;;
29776;SDS011;16677;52.224;7.484;2023-09-19T14:07:21;4.70;;;2.20;;
29776;SDS011;16677;52.224;7.484;2023-09-19T14:09:48;6.33;;;2.37;;
29776;SDS011;16677;52.224;7.484;2023-09-19T14:12:15;6.33;;;2.67;;
29776;SDS011;16677;52.224;7.484;2023-09-19T14:14:42;6.83;;;2.30;;
29776;SDS011;16677;52.224;7.484;2023-09-19T14:17:11;6.13;;;2.43;;
29776;SDS011;16677;52.224;7.484;2023-09-19T14:19:40;8.23;;;2.27;;
29776;SDS011;16677;52.224;7.484;2023-09-19T14:22:11;4.57;;;2.20;;
29776;SDS011;16677;52.224;7.484;2023-09-19T14:24:40;4.37;;;2.10;;
29776;SDS011;16677;52.224;7.484;2023-09-19T14:27:07;9.40;;;2.60;;
29776;SDS011;16677;52.224;7.484;2023-09-19T14:29:36;5.87;;;2.30;;
29776;SDS011;16677;52.224;7.484;2023-09-19T14:32:03;5.07;;;2.43;;
29776;SDS011;16677;52.224;7.484;2023-09-19T14:34:31;7.63;;;2.70;;
29776;SDS011;16677;52.224;7.484;2023-09-19T14:36:59;4.87;;;2.10;;
29776;SDS011;16677;52.224;7.484;2023-09-19T14:39:26;9.03;;;2.47;;
29776;SDS011;16677;52.224;7.484;2023-09-19T14:41:53;5.80;;;2.33;;
29776;SDS011;16677;52.224;7.484;2023-09-19T14:44:20;7.43;;;2.20;;
29776;SDS011;16677;52.224;7.484;2023-09-19T14:46:48;5.83;;;2.10;;
29776;SDS011;16677;52.224;7.484;2023-09-19T14:49:16;6.87;;;2.20;;
29776;SDS011;16677;52.224;7.484;2023-09-19T14:51:43;8.13;;;1.97;;
29776;SDS011;16677;52.224;7.484;2023-09-19T14:54:11;6.77;;;2.20;;
29776;SDS011;16677;52.224;7.484;2023-09-19T14:56:38;5.83;;;2.50;;
29776;SDS011;16677;52.224;7.484;2023-09-19T14:59:06;3.63;;;1.90;;
29776;SDS011;16677;52.224;7.484;2023-09-19T15:01:34;6.73;;;1.70;;
29776;SDS011;16677;52.224;7.484;2023-09-19T15:04:01;6.17;;;1.90;;
29776;SDS011;16677;52.224;7.484;2023-09-19T15:06:29;5.77;;;1.97;;
29776;SDS011;16677;52.224;7.484;2023-09-19T15:08:56;6.80;;;2.07;;
29776;SDS011;16677;52.224;7.484;2023-09-19T15:11:24;3.43;;;1.63;;
29776;SDS011;16677;52.224;7.484;2023-09-19T15:13:51;6.00;;;1.90;;
29776;SDS011;16677;52.224;7.484;2023-09-19T15:16:20;5.30;;;2.00;;
29776;SDS011;16677;52.224;7.484;2023-09-19T15:18:48;5.17;;;1.73;;
29776;SDS011;16677;52.224;7.484;2023-09-19T15:21:16;5.40;;;1.90;;
29776;SDS011;16677;52.224;7.484;2023-09-19T15:23:43;5.63;;;1.90;;
29776;SDS011;16677;52.224;7.484;2023-09-19T15:26:12;6.83;;;2.00;;
29776;SDS011;16677;52.224;7.484;2023-09-19T15:28:40;3.43;;;1.77;;
29776;SDS011;16677;52.224;7.484;2023-09-19T15:31:09;5.50;;;2.30;;
29776;SDS011;16677;52.224;7.484;2023-09-19T15:33:37;5.90;;;1.73;;
29776;SDS011;16677;52.224;7.484;2023-09-19T15:36:09;3.42;;;1.48;;
29776;SDS011;16677;52.224;7.484;2023-09-19T15:41:24;5.40;;;1.90;;
29776;SDS011;16677;52.224;7.484;2023-09-19T15:43:56;4.70;;;1.70;;
29776;SDS011;16677;52.224;7.484;2023-09-19T15:46:25;4.17;;;1.60;;
29776;SDS011;16677;52.224;7.484;2023-09-19T15:48:53;2.53;;;1.40;;
29776;SDS011;16677;52.224;7.484;2023-09-19T15:51:21;3.70;;;1.60;;
29776;SDS011;16677;52.224;7.484;2023-09-19T15:53:49;5.30;;;1.87;;
29776;SDS011;16677;52.224;7.484;2023-09-19T15:56:17;6.57;;;1.60;;
29776;SDS011;16677;52.224;7.484;2023-09-19T15:58:45;5.03;;;1.60;;
29776;SDS011;16677;52.224;7.484;2023-09-19T16:01:13;2.72;;;1.35;;
29776;SDS011;16677;52.224;7.484;2023-09-19T16:06:15;5.82;;;1.60;;
29776;SDS011;16677;52.224;7.484;2023-09-19T16:08:47;6.33;;;1.50;;
29776;SDS011;16677;52.224;7.484;2023-09-19T16:11:15;4.80;;;1.40;;
29776;SDS011;16677;52.224;7.484;2023-09-19T16:13:43;5.10;;;1.47;;
29776;SDS011;16677;52.224;7.484;2023-09-19T16:16:14;4.63;;;1.50;;
29776;SDS011;16677;52.224;7.484;2023-09-19T16:18:46;4.83;;;1.30;;
29776;SDS011;16677;52.224;7.484;2023-09-19T16:21:17;3.63;;;1.63;;
29776;SDS011;16677;52.224;7.484;2023-09-19T16:23:48;2.57;;;1.43;;
29776;SDS011;16677;52.224;7.484;2023-09-19T16:26:17;4.20;;;1.70;;
29776;SDS011;16677;52.224;7.484;2023-09-19T16:28:49;4.70;;;1.60;;
29776;SDS011;16677;52.224;7.484;2023-09-19T16:31:18;2.00;;;1.40;;
29776;SDS011;16677;52.224;7.484;2023-09-19T16:33:46;3.03;;;1.60;;
29776;SDS011;16677;52.224;7.484;2023-09-19T16:36:15;4.47;;;1.60;;
29776;SDS011;16677;52.224;7.484;2023-09-19T16:38:44;6.03;;;2.17;;
29776;SDS011;16677;52.224;7.484;2023-09-19T16:41:14;2.87;;;1.40;;
29776;SDS011;16677;52.224;7.484;2023-09-19T16:43:45;5.67;;;1.50;;
29776;SDS011;16677;52.224;7.484;2023-09-19T16:46:13;4.87;;;1.40;;
29776;SDS011;16677;52.224;7.484;2023-09-19T16:48:44;5.63;;;1.50;;
29776;SDS011;16677;52.224;7.484;2023-09-19T16:51:15;6.43;;;1.70;;
29776;SDS011;16677;52.224;7.484;2023-09-19T16:53:43;3.80;;;1.40;;
29776;SDS011;16677;52.224;7.484;2023-09-19T16:56:15;3.33;;;1.40;;
29776;SDS011;16677;52.224;7.484;2023-09-19T16:58:46;6.87;;;1.50;;
29776;SDS011;16677;52.224;7.484;2023-09-19T17:01:15;3.63;;;1.50;;
29776;SDS011;16677;52.224;7.484;2023-09-19T17:03:45;4.13;;;1.70;;
29776;SDS011;16677;52.224;7.484;2023-09-19T17:06:16;3.90;;;1.30;;
29776;SDS011;16677;52.224;7.484;2023-09-19T17:08:46;5.00;;;1.90;;
29776;SDS011;16677;52.224;7.484;2023-09-19T17:11:14;3.60;;;1.40;;
29776;SDS011;16677;52.224;7.484;2023-09-19T17:13:44;3.77;;;1.73;;
29776;SDS011;16677;52.224;7.484;2023-09-19T17:16:16;1.90;;;1.50;;
29776;SDS011;16677;52.224;7.484;2023-09-19T17:18:55;4.27;;;1.70;;
29776;SDS011;16677;52.224;7.484;2023-09-19T17:21:23;3.73;;;1.50;;
29776;SDS011;16677;52.224;7.484;2023-09-19T17:23:52;4.23;;;1.40;;
29776;SDS011;16677;52.224;7.484;2023-09-19T17:26:20;3.37;;;1.60;;
29776;SDS011;16677;52.224;7.484;2023-09-19T17:28:49;3.67;;;1.40;;
29776;SDS011;16677;52.224;7.484;2023-09-19T17:31:21;3.23;;;1.40;;
29776;SDS011;16677;52.224;7.484;2023-09-19T17:33:51;2.20;;;1.47;;
29776;SDS011;16677;52.224;7.484;2023-09-19T17:36:20;4.83;;;1.40;;
29776;SDS011;16677;52.224;7.484;2023-09-19T17:38:50;3.00;;;1.50;;
29776;SDS011;16677;52.224;7.484;2023-09-19T17:41:22;5.03;;;1.60;;
29776;SDS011;16677;52.224;7.484;2023-09-19T17:43:53;5.97;;;1.40;;
29776;SDS011;16677;52.224;7.484;2023-09-19T17:46:21;6.47;;;2.00;;
29776;SDS011;16677;52.224;7.484;2023-09-19T17:48:56;5.47;;;1.60;;
29776;SDS011;16677;52.224;7.484;2023-09-19T17:51:24;3.33;;;1.37;;
29776;SDS011;16677;52.224;7.484;2023-09-19T17:53:53;3.83;;;1.40;;
29776;SDS011;16677;52.224;7.484;2023-09-19T17:56:26;3.30;;;1.80;;
29776;SDS011;16677;52.224;7.484;2023-09-19T17:58:53;4.30;;;1.60;;
29776;SDS011;16677;52.224;7.484;2023-09-19T18:01:23;3.77;;;1.43;;
29776;SDS011;16677;52.224;7.484;2023-09-19T18:03:56;5.53;;;1.70;;
29776;SDS011;16677;52.224;7.484;2023-09-19T18:06:26;3.93;;;1.50;;
29776;SDS011;16677;52.224;7.484;2023-09-19T18:08:53;2.17;;;1.40;;
29776;SDS011;16677;52.224;7.484;2023-09-19T18:11:22;3.47;;;1.67;;
29776;SDS011;16677;52.224;7.484;2023-09-19T18:13:55;3.50;;;1.70;;
29776;SDS011;16677;52.224;7.484;2023-09-19T18:16:24;3.10;;;1.40;;
29776;SDS011;16677;52.224;7.484;2023-09-19T18:18:54;5.00;;;1.53;;
29776;SDS011;16677;52.224;7.484;2023-09-19T18:21:22;5.57;;;1.67;;
29776;SDS011;16677;52.224;7.484;2023-09-19T18:23:57;4.20;;;1.60;;
29776;SDS011;16677;52.224;7.484;2023-09-19T18:26:25;5.17;;;1.43;;
29776;SDS011;16677;52.224;7.484;2023-09-19T18:28:54;2.80;;;1.50;;
29776;SDS011;16677;52.224;7.484;2023-09-19T18:31:21;6.50;;;1.93;;
29776;SDS011;16677;52.224;7.484;2023-09-19T18:33:49;5.57;;;1.90;;
29776;SDS011;16677;52.224;7.484;2023-09-19T18:36:18;3.60;;;1.70;;
29776;SDS011;16677;52.224;7.484;2023-09-19T18:38:45;5.40;;;1.73;;
29776;SDS011;16677;52.224;7.484;2023-09-19T18:41:14;3.43;;;1.60;;
29776;SDS011;16677;52.224;7.484;2023-09-19T18:43:42;4.57;;;1.87;;
29776;SDS011;16677;52.224;7.484;2023-09-19T18:46:10;2.67;;;1.53;;
29776;SDS011;16677;52.224;7.484;2023-09-19T18:48:41;3.50;;;1.87;;
29776;SDS011;16677;52.224;7.484;2023-09-19T18:51:13;5.10;;;1.57;;
29776;SDS011;16677;52.224;7.484;2023-09-19T18:53:44;2.60;;;1.73;;
29776;SDS011;16677;52.224;7.484;2023-09-19T18:56:26;3.53;;;1.50;;
29776;SDS011;16677;52.224;7.484;2023-09-19T18:58:54;6.57;;;2.10;;
29776;SDS011;16677;52.224;7.484;2023-09-19T19:01:21;4.17;;;2.07;;
29776;SDS011;16677;52.224;7.484;2023-09-19T19:03:51;3.10;;;1.67;;
29776;SDS011;16677;52.224;7.484;2023-09-19T19:06:19;5.93;;;1.97;;
29776;SDS011;16677;52.224;7.484;2023-09-19T19:08:48;3.63;;;1.73;;
29776;SDS011;16677;52.224;7.484;2023-09-19T19:11:18;5.53;;;1.90;;
29776;SDS011;16677;52.224;7.484;2023-09-19T19:13:51;5.40;;;2.10;;
29776;SDS011;16677;52.224;7.484;2023-09-19T19:16:21;5.23;;;1.97;;
29776;SDS011;16677;52.224;7.484;2023-09-19T19:18:48;4.17;;;1.80;;
29776;SDS011;16677;52.224;7.484;2023-09-19T19:21:17;3.33;;;1.90;;
29776;SDS011;16677;52.224;7.484;2023-09-19T19:23:45;4.30;;;1.90;;
29776;SDS011;16677;52.224;7.484;2023-09-19T19:26:12;4.17;;;2.17;;
29776;SDS011;16677;52.224;7.484;2023-09-19T19:28:41;4.00;;;1.67;;
29776;SDS011;16677;52.224;7.484;2023-09-19T19:31:12;4.70;;;1.53;;
29776;SDS011;16677;52.224;7.484;2023-09-19T19:33:40;5.70;;;1.87;;
29776;SDS011;16677;52.224;7.484;2023-09-19T19:36:08;6.13;;;1.77;;
29776;SDS011;16677;52.224;7.484;2023-09-19T19:38:37;4.38;;;1.80;;
29776;SDS011;16677;52.224;7.484;2023-09-19T19:41:05;4.27;;;1.87;;
29776;SDS011;16677;52.224;7.484;2023-09-19T19:43:33;4.37;;;1.97;;
29776;SDS011;16677;52.224;7.484;2023-09-19T19:46:02;4.60;;;1.73;;
29776;SDS011;16677;52.224;7.484;2023-09-19T19:48:31;4.33;;;1.97;;
29776;SDS011;16677;52.224;7.484;2023-09-19T19:51:00;2.60;;;1.60;;
29776;SDS011;16677;52.224;7.484;2023-09-19T19:53:33;4.33;;;2.03;;
29776;SDS011;16677;52.224;7.484;2023-09-19T19:56:00;7.20;;;1.97;;
29776;SDS011;16677;52.224;7.484;2023-09-19T19:58:27;5.80;;;2.07;;
29776;SDS011;16677;52.224;7.484;2023-09-19T20:00:57;6.63;;;1.90;;
29776;SDS011;16677;52.224;7.484;2023-09-19T20:03:26;4.60;;;1.90;;
29776;SDS011;16677;52.224;7.484;2023-09-19T20:05:54;3.47;;;1.87;;
29776;SDS011;16677;52.224;7.484;2023-09-19T20:08:21;6.83;;;2.20;;
29776;SDS011;16677;52.224;7.484;2023-09-19T20:10:49;5.57;;;2.27;;
29776;SDS011;16677;52.224;7.484;2023-09-19T20:13:16;3.57;;;1.97;;
29776;SDS011;16677;52.224;7.484;2023-09-19T20:15:53;3.73;;;1.80;;
29776;SDS011;16677;52.224;7.484;2023-09-19T20:18:24;4.87;;;2.07;;
29776;SDS011;16677;52.224;7.484;2023-09-19T20:20:55;4.03;;;1.80;;
29776;SDS011;16677;52.224;7.484;2023-09-19T20:23:22;4.57;;;1.87;;
29776;SDS011;16677;52.224;7.484;2023-09-19T20:25:49;4.27;;;1.63;;
29776;SDS011;16677;52.224;7.484;2023-09-19T20:28:17;4.17;;;1.63;;
29776;SDS011;16677;52.224;7.484;2023-09-19T20:30:44;4.93;;;1.80;;
29776;SDS011;16677;52.224;7.484;2023-09-19T20:33:11;6.83;;;1.80;;
29776;SDS011;16677;52.224;7.484;2023-09-19T20:35:39;4.70;;;1.90;;
29776;SDS011;16677;52.224;7.484;2023-09-19T20:38:07;5.50;;;1.80;;
29776;SDS011;16677;52.224;7.484;2023-09-19T20:40:39;4.63;;;2.10;;
29776;SDS011;16677;52.224;7.484;2023-09-19T20:43:07;3.47;;;1.70;;
29776;SDS011;16677;52.224;7.484;2023-09-19T20:45:34;6.23;;;2.57;;
29776;SDS011;16677;52.224;7.484;2023-09-19T20:48:07;6.70;;;2.47;;
29776;SDS011;16677;52.224;7.484;2023-09-19T20:50:37;5.30;;;1.97;;
29776;SDS011;16677;52.224;7.484;2023-09-19T20:53:05;2.40;;;1.50;;
29776;SDS011;16677;52.224;7.484;2023-09-19T20:55:33;3.50;;;1.90;;
29776;SDS011;16677;52.224;7.484;2023-09-19T20:58:03;6.43;;;1.80;;
29776;SDS011;16677;52.224;7.484;2023-09-19T21:00:32;7.87;;;2.20;;
29776;SDS011;16677;52.224;7.484;2023-09-19T21:03:00;5.23;;;2.13;;
29776;SDS011;16677;52.224;7.484;2023-09-19T21:05:27;5.83;;;2.20;;
29776;SDS011;16677;52.224;7.484;2023-09-19T21:07:54;5.00;;;1.83;;
29776;SDS011;16677;52.224;7.484;2023-09-19T21:10:22;6.37;;;1.70;;
29776;SDS011;16677;52.224;7.484;2023-09-19T21:12:49;6.33;;;2.07;;
29776;SDS011;16677;52.224;7.484;2023-09-19T21:15:16;5.00;;;1.70;;
29776;SDS011;16677;52.224;7.484;2023-09-19T21:17:44;5.70;;;2.30;;
29776;SDS011;16677;52.224;7.484;2023-09-19T21:20:12;5.27;;;1.90;;
29776;SDS011;16677;52.224;7.484;2023-09-19T21:22:40;5.43;;;2.10;;
29776;SDS011;16677;52.224;7.484;2023-09-19T21:25:07;5.33;;;1.97;;
29776;SDS011;16677;52.224;7.484;2023-09-19T21:27:35;4.73;;;1.80;;
29776;SDS011;16677;52.224;7.484;2023-09-19T21:30:02;6.90;;;2.00;;
29776;SDS011;16677;52.224;7.484;2023-09-19T21:32:31;5.90;;;2.07;;
29776;SDS011;16677;52.224;7.484;2023-09-19T21:34:58;8.53;;;1.90;;
29776;SDS011;16677;52.224;7.484;2023-09-19T21:37:27;4.47;;;2.03;;
29776;SDS011;16677;52.224;7.484;2023-09-19T21:39:55;4.70;;;1.97;;
29776;SDS011;16677;52.224;7.484;2023-09-19T21:42:22;4.70;;;2.17;;
29776;SDS011;16677;52.224;7.484;2023-09-19T21:44:49;5.83;;;2.10;;
29776;SDS011;16677;52.224;7.484;2023-09-19T21:47:17;6.23;;;2.00;;
29776;SDS011;16677;52.224;7.484;2023-09-19T21:49:44;5.70;;;2.20;;
29776;SDS011;16677;52.224;7.484;2023-09-19T21:52:14;5.87;;;2.33;;
29776;SDS011;16677;52.224;7.484;2023-09-19T21:54:41;4.57;;;2.17;;
29776;SDS011;16677;52.224;7.484;2023-09-19T21:57:08;4.30;;;2.43;;
29776;SDS011;16677;52.224;7.484;2023-09-19T21:59:35;3.77;;;2.03;;
29776;SDS011;16677;52.224;7.484;2023-09-19T22:02:02;7.10;;;2.33;;
29776;SDS011;16677;52.224;7.484;2023-09-19T22:04:29;6.43;;;2.30;;
29776;SDS011;16677;52.224;7.484;2023-09-19T22:06:58;6.10;;;2.20;;
29776;SDS011;16677;52.224;7.484;2023-09-19T22:09:25;5.43;;;1.87;;
29776;SDS011;16677;52.224;7.484;2023-09-19T22:11:52;4.97;;;2.10;;
29776;SDS011;16677;52.224;7.484;2023-09-19T22:14:20;5.20;;;2.13;;
29776;SDS011;16677;52.224;7.484;2023-09-19T22:16:58;4.63;;;1.80;;
29776;SDS011;16677;52.224;7.484;2023-09-19T22:19:26;8.77;;;2.30;;
29776;SDS011;16677;52.224;7.484;2023-09-19T22:21:54;7.00;;;2.13;;
29776;SDS011;16677;52.224;7.484;2023-09-19T22:24:21;6.53;;;2.07;;
29776;SDS011;16677;52.224;7.484;2023-09-19T22:26:49;5.60;;;2.00;;
29776;SDS011;16677;52.224;7.484;2023-09-19T22:29:16;4.50;;;2.53;;
29776;SDS011;16677;52.224;7.484;2023-09-19T22:31:43;5.70;;;2.33;;
29776;SDS011;16677;52.224;7.484;2023-09-19T22:34:10;5.97;;;1.97;;
29776;SDS011;16677;52.224;7.484;2023-09-19T22:36:38;5.00;;;2.30;;
29776;SDS011;16677;52.224;7.484;2023-09-19T22:39:10;4.30;;;1.97;;
29776;SDS011;16677;52.224;7.484;2023-09-19T22:41:50;5.03;;;2.20;;
29776;SDS011;16677;52.224;7.484;2023-09-19T22:44:20;7.37;;;2.67;;
29776;SDS011;16677;52.224;7.484;2023-09-19T22:46:52;4.80;;;1.93;;
29776;SDS011;16677;52.224;7.484;2023-09-19T22:49:20;6.70;;;2.20;;
29776;SDS011;16677;52.224;7.484;2023-09-19T22:51:47;8.70;;;2.33;;
29776;SDS011;16677;52.224;7.484;2023-09-19T22:54:18;6.07;;;2.20;;
29776;SDS011;16677;52.224;7.484;2023-09-19T22:56:52;4.00;;;2.10;;
29776;SDS011;16677;52.224;7.484;2023-09-19T22:59:20;5.50;;;2.40;;
29776;SDS011;16677;52.224;7.484;2023-09-19T23:01:48;4.27;;;2.10;;
29776;SDS011;16677;52.224;7.484;2023-09-19T23:04:16;4.93;;;2.13;;
29776;SDS011;16677;52.224;7.484;2023-09-19T23:06:48;4.37;;;2.17;;
29776;SDS011;16677;52.224;7.484;2023-09-19T23:09:20;4.60;;;2.10;;
29776;SDS011;16677;52.224;7.484;2023-09-19T23:11:52;5.40;;;2.00;;
29776;SDS011;16677;52.224;7.484;2023-09-19T23:14:36;5.03;;;2.10;;
29776;SDS011;16677;52.224;7.484;2023-09-19T23:17:06;4.40;;;2.00;;
29776;SDS011;16677;52.224;7.484;2023-09-19T23:19:48;3.33;;;1.93;;
29776;SDS011;16677;52.224;7.484;2023-09-19T23:22:17;7.03;;;2.40;;
29776;SDS011;16677;52.224;7.484;2023-09-19T23:24:44;4.10;;;2.17;;
29776;SDS011;16677;52.224;7.484;2023-09-19T23:27:16;6.93;;;2.60;;
29776;SDS011;16677;52.224;7.484;2023-09-19T23:29:45;4.10;;;1.97;;
29776;SDS011;16677;52.224;7.484;2023-09-19T23:32:12;8.60;;;2.20;;
29776;SDS011;16677;52.224;7.484;2023-09-19T23:34:41;4.90;;;2.60;;
29776;SDS011;16677;52.224;7.484;2023-09-19T23:37:09;6.70;;;2.60;;
29776;SDS011;16677;52.224;7.484;2023-09-19T23:39:36;7.53;;;2.27;;
29776;SDS011;16677;52.224;7.484;2023-09-19T23:42:08;5.33;;;2.37;;
29776;SDS011;16677;52.224;7.484;2023-09-19T23:44:37;5.70;;;2.40;;
29776;SDS011;16677;52.224;7.484;2023-09-19T23:47:08;6.20;;;2.30;;
29776;SDS011;16677;52.224;7.484;2023-09-19T23:49:37;8.40;;;2.50;;
29776;SDS011;16677;52.224;7.484;2023-09-19T23:52:07;4.23;;;2.27;;
29776;SDS011;16677;52.224;7.484;2023-09-19T23:54:37;3.13;;;2.10;;
29776;SDS011;16677;52.224;7.484;2023-09-19T23:57:07;6.00;;;2.27;;
29776;SDS011;16677;52.224;7.484;2023-09-19T23:59:37;6.87;;;2.30;;
